sensor_id;sensor_type;location;lat;lon;timestamp;pressure;altitude;pressure_sealevel;temperature;humidity
48622;BME280;34421;48.944;9.460;2023-05-10T00:02:15;97838.94;;;16.44;80.40
48622;BME280;34421;48.944;9.460;2023-05-10T00:04:41;97841.63;;;16.39;79.91
48622;BME280;34421;48.944;9.460;2023-05-10T00:07:06;97839.44;;;16.31;80.02
48622;BME280;34421;48.944;9.460;2023-05-10T00:09:31;97841.56;;;16.29;80.69
48622;BME280;34421;48.944;9.460;2023-05-10T00:11:57;97839.97;;;16.28;80.37
48622;BME280;34421;48.944;9.460;2023-05-10T00:14:23;97840.50;;;16.25;80.13
48622;BME280;34421;48.944;9.460;2023-05-10T00:16:48;97842.91;;;16.21;80.83
48622;BME280;34421;48.944;9.460;2023-05-10T00:19:14;97835.63;;;16.16;80.78
48622;BME280;34421;48.944;9.460;2023-05-10T00:21:39;97839.09;;;16.17;80.36
48622;BME280;34421;48.944;9.460;2023-05-10T00:24:04;97850.38;;;16.14;80.92
48622;BME280;34421;48.944;9.460;2023-05-10T00:26:30;97841.47;;;16.08;80.87
48622;BME280;34421;48.944;9.460;2023-05-10T00:28:55;97844.44;;;16.07;80.86
48622;BME280;34421;48.944;9.460;2023-05-10T00:31:21;97855.66;;;15.99;81.27
48622;BME280;34421;48.944;9.460;2023-05-10T00:33:47;97844.63;;;15.90;80.81
48622;BME280;34421;48.944;9.460;2023-05-10T00:36:12;97853.69;;;15.84;81.61
48622;BME280;34421;48.944;9.460;2023-05-10T00:38:37;97849.88;;;15.75;81.83
48622;BME280;34421;48.944;9.460;2023-05-10T00:41:03;97847.72;;;15.71;81.27
48622;BME280;34421;48.944;9.460;2023-05-10T00:43:28;97857.94;;;15.75;81.78
48622;BME280;34421;48.944;9.460;2023-05-10T00:45:54;97854.97;;;15.71;81.69
48622;BME280;34421;48.944;9.460;2023-05-10T00:48:19;97853.03;;;15.66;81.08
48622;BME280;34421;48.944;9.460;2023-05-10T00:50:45;97847.38;;;15.63;81.21
48622;BME280;34421;48.944;9.460;2023-05-10T00:53:11;97854.06;;;15.60;81.81
48622;BME280;34421;48.944;9.460;2023-05-10T00:55:36;97854.63;;;15.62;81.88
48622;BME280;34421;48.944;9.460;2023-05-10T00:58:02;97861.75;;;15.52;81.41
48622;BME280;34421;48.944;9.460;2023-05-10T01:00:28;97859.31;;;15.45;81.46
48622;BME280;34421;48.944;9.460;2023-05-10T01:02:54;97868.72;;;15.47;80.90
48622;BME280;34421;48.944;9.460;2023-05-10T01:05:20;97866.84;;;15.48;81.08
48622;BME280;34421;48.944;9.460;2023-05-10T01:07:45;97863.06;;;15.44;79.96
48622;BME280;34421;48.944;9.460;2023-05-10T01:10:10;97872.63;;;15.35;80.36
48622;BME280;34421;48.944;9.460;2023-05-10T01:12:38;97868.84;;;15.31;81.28
48622;BME280;34421;48.944;9.460;2023-05-10T01:15:06;97871.81;;;15.34;80.63
48622;BME280;34421;48.944;9.460;2023-05-10T01:17:34;97872.09;;;15.33;81.03
48622;BME280;34421;48.944;9.460;2023-05-10T01:20:00;97877.97;;;15.30;81.48
48622;BME280;34421;48.944;9.460;2023-05-10T01:33:25;97877.50;;;15.11;81.21
48622;BME280;34421;48.944;9.460;2023-05-10T01:35:57;97881.56;;;15.13;81.11
48622;BME280;34421;48.944;9.460;2023-05-10T01:41:14;97878.63;;;15.15;80.90
48622;BME280;34421;48.944;9.460;2023-05-10T01:43:59;97893.81;;;15.04;81.32
48622;BME280;34421;48.944;9.460;2023-05-10T01:46:37;97897.50;;;14.98;81.38
48622;BME280;34421;48.944;9.460;2023-05-10T01:49:29;97902.56;;;14.94;81.13
48622;BME280;34421;48.944;9.460;2023-05-10T01:51:54;97902.78;;;14.93;81.67
48622;BME280;34421;48.944;9.460;2023-05-10T01:54:24;97898.00;;;14.95;80.90
48622;BME280;34421;48.944;9.460;2023-05-10T01:56:59;97913.59;;;14.98;80.75
48622;BME280;34421;48.944;9.460;2023-05-10T01:59:29;97911.69;;;14.93;80.62
48622;BME280;34421;48.944;9.460;2023-05-10T02:01:57;97911.16;;;14.96;80.44
48622;BME280;34421;48.944;9.460;2023-05-10T02:04:25;97916.53;;;14.96;81.46
48622;BME280;34421;48.944;9.460;2023-05-10T02:06:51;97916.03;;;14.99;80.79
48622;BME280;34421;48.944;9.460;2023-05-10T02:09:18;97912.56;;;15.04;80.62
48622;BME280;34421;48.944;9.460;2023-05-10T02:11:45;97916.03;;;14.99;80.57
48622;BME280;34421;48.944;9.460;2023-05-10T02:14:13;97915.19;;;14.99;80.78
48622;BME280;34421;48.944;9.460;2023-05-10T02:16:41;97918.94;;;14.98;80.40
48622;BME280;34421;48.944;9.460;2023-05-10T02:19:07;97916.25;;;14.98;80.51
48622;BME280;34421;48.944;9.460;2023-05-10T02:21:34;97917.34;;;14.97;80.62
48622;BME280;34421;48.944;9.460;2023-05-10T02:24:02;97916.25;;;14.98;80.91
48622;BME280;34421;48.944;9.460;2023-05-10T02:26:28;97925.41;;;15.02;80.50
48622;BME280;34421;48.944;9.460;2023-05-10T02:28:54;97935.66;;;15.05;80.99
48622;BME280;34421;48.944;9.460;2023-05-10T02:31:21;97932.72;;;15.07;80.57
48622;BME280;34421;48.944;9.460;2023-05-10T02:33:48;97931.91;;;15.06;80.15
48622;BME280;34421;48.944;9.460;2023-05-10T02:36:14;97925.75;;;15.06;80.31
48622;BME280;34421;48.944;9.460;2023-05-10T02:38:40;97937.00;;;15.08;79.96
48622;BME280;34421;48.944;9.460;2023-05-10T02:41:07;97946.91;;;15.07;80.77
48622;BME280;34421;48.944;9.460;2023-05-10T02:43:34;97937.78;;;15.03;80.30
48622;BME280;34421;48.944;9.460;2023-05-10T02:46:00;97937.50;;;15.04;80.24
48622;BME280;34421;48.944;9.460;2023-05-10T02:48:26;97938.06;;;15.07;79.96
48622;BME280;34421;48.944;9.460;2023-05-10T02:50:52;97938.34;;;15.05;80.01
48622;BME280;34421;48.944;9.460;2023-05-10T02:53:22;97943.13;;;15.03;80.05
48622;BME280;34421;48.944;9.460;2023-05-10T02:55:50;97946.84;;;15.02;80.30
48622;BME280;34421;48.944;9.460;2023-05-10T02:58:16;97947.94;;;15.01;79.90
48622;BME280;34421;48.944;9.460;2023-05-10T03:00:44;97949.00;;;15.00;79.91
48622;BME280;34421;48.944;9.460;2023-05-10T03:03:11;97946.56;;;14.98;80.28
48622;BME280;34421;48.944;9.460;2023-05-10T03:05:36;97949.19;;;14.93;80.49
48622;BME280;34421;48.944;9.460;2023-05-10T03:08:02;97953.22;;;14.96;80.62
48622;BME280;34421;48.944;9.460;2023-05-10T03:10:30;97952.22;;;15.02;80.48
48622;BME280;34421;48.944;9.460;2023-05-10T03:15:59;97950.88;;;14.99;80.60
48622;BME280;34421;48.944;9.460;2023-05-10T03:18:35;97956.28;;;15.04;80.42
48622;BME280;34421;48.944;9.460;2023-05-10T03:21:04;97956.84;;;15.07;80.32
48622;BME280;34421;48.944;9.460;2023-05-10T03:23:51;97961.41;;;15.06;80.85
48622;BME280;34421;48.944;9.460;2023-05-10T03:26:26;97960.63;;;15.11;80.28
48622;BME280;34421;48.944;9.460;2023-05-10T03:28:52;97960.63;;;15.11;80.70
48622;BME280;34421;48.944;9.460;2023-05-10T03:31:18;97963.63;;;15.14;80.41
48622;BME280;34421;48.944;9.460;2023-05-10T03:33:51;97969.03;;;15.19;80.18
48622;BME280;34421;48.944;9.460;2023-05-10T03:36:17;97964.47;;;15.20;79.95
48622;BME280;34421;48.944;9.460;2023-05-10T03:38:42;97962.63;;;15.20;79.78
48622;BME280;34421;48.944;9.460;2023-05-10T03:41:08;97966.41;;;15.24;79.70
48622;BME280;34421;48.944;9.460;2023-05-10T03:43:33;97974.75;;;15.28;79.88
48622;BME280;34421;48.944;9.460;2023-05-10T03:45:58;97971.78;;;15.24;79.74
48622;BME280;34421;48.944;9.460;2023-05-10T03:48:24;97968.84;;;15.26;79.38
48622;BME280;34421;48.944;9.460;2023-05-10T03:50:49;97969.16;;;15.30;79.43
48622;BME280;34421;48.944;9.460;2023-05-10T03:53:15;97969.66;;;15.26;79.87
48622;BME280;34421;48.944;9.460;2023-05-10T03:55:40;97973.94;;;15.27;79.94
48622;BME280;34421;48.944;9.460;2023-05-10T03:58:06;97975.31;;;15.30;79.66
48622;BME280;34421;48.944;9.460;2023-05-10T04:00:31;97970.75;;;15.31;80.02
48622;BME280;34421;48.944;9.460;2023-05-10T04:02:57;97968.88;;;15.31;78.97
48622;BME280;34421;48.944;9.460;2023-05-10T04:05:22;97971.56;;;15.31;80.06
48622;BME280;34421;48.944;9.460;2023-05-10T04:07:48;97965.41;;;15.31;79.67
48622;BME280;34421;48.944;9.460;2023-05-10T04:10:14;97975.31;;;15.30;79.85
48622;BME280;34421;48.944;9.460;2023-05-10T04:12:41;97969.19;;;15.35;79.32
48622;BME280;34421;48.944;9.460;2023-05-10T04:15:07;97969.25;;;15.40;79.94
48622;BME280;34421;48.944;9.460;2023-05-10T04:17:32;97974.66;;;15.45;79.53
48622;BME280;34421;48.944;9.460;2023-05-10T04:19:57;97962.34;;;15.49;79.51
48622;BME280;34421;48.944;9.460;2023-05-10T04:22:23;97972.56;;;15.52;78.75
48622;BME280;34421;48.944;9.460;2023-05-10T04:24:48;97974.44;;;15.52;79.01
48622;BME280;34421;48.944;9.460;2023-05-10T04:27:13;97972.84;;;15.50;78.77
48622;BME280;34421;48.944;9.460;2023-05-10T04:29:39;97974.16;;;15.48;78.54
48622;BME280;34421;48.944;9.460;2023-05-10T04:32:04;97980.84;;;15.45;79.38
48622;BME280;34421;48.944;9.460;2023-05-10T04:34:30;97978.94;;;15.46;78.99
48622;BME280;34421;48.944;9.460;2023-05-10T04:36:55;97978.72;;;15.47;78.99
48622;BME280;34421;48.944;9.460;2023-05-10T04:39:20;97985.69;;;15.48;79.50
48622;BME280;34421;48.944;9.460;2023-05-10T04:41:46;97988.88;;;15.45;79.04
48622;BME280;34421;48.944;9.460;2023-05-10T04:44:11;97986.75;;;15.47;79.51
48622;BME280;34421;48.944;9.460;2023-05-10T04:46:36;97983.81;;;15.49;79.80
48622;BME280;34421;48.944;9.460;2023-05-10T04:49:02;97982.19;;;15.48;79.99
48622;BME280;34421;48.944;9.460;2023-05-10T04:51:27;97990.31;;;15.53;79.00
48622;BME280;34421;48.944;9.460;2023-05-10T04:53:52;97985.25;;;15.57;79.64
48622;BME280;34421;48.944;9.460;2023-05-10T04:56:18;97992.50;;;15.61;79.38
48622;BME280;34421;48.944;9.460;2023-05-10T04:58:43;97996.53;;;15.59;79.26
48622;BME280;34421;48.944;9.460;2023-05-10T05:01:08;97993.53;;;15.55;79.42
48622;BME280;34421;48.944;9.460;2023-05-10T05:03:35;97997.84;;;15.56;79.62
48622;BME280;34421;48.944;9.460;2023-05-10T05:06:01;97993.53;;;15.55;78.43
48622;BME280;34421;48.944;9.460;2023-05-10T05:08:26;97997.53;;;15.53;79.40
48622;BME280;34421;48.944;9.460;2023-05-10T05:10:52;98001.03;;;15.53;78.42
48622;BME280;34421;48.944;9.460;2023-05-10T05:13:17;98009.13;;;15.58;79.01
48622;BME280;34421;48.944;9.460;2023-05-10T05:15:42;98008.47;;;15.68;78.54
48622;BME280;34421;48.944;9.460;2023-05-10T05:18:08;98009.59;;;15.77;78.30
48622;BME280;34421;48.944;9.460;2023-05-10T05:20:33;98012.66;;;15.91;77.82
48622;BME280;34421;48.944;9.460;2023-05-10T05:23:01;98010.38;;;16.05;77.46
48622;BME280;34421;48.944;9.460;2023-05-10T05:25:27;98016.41;;;16.22;76.96
48622;BME280;34421;48.944;9.460;2023-05-10T05:27:52;98019.16;;;16.32;77.01
48622;BME280;34421;48.944;9.460;2023-05-10T05:30:17;98021.03;;;16.32;76.66
48622;BME280;34421;48.944;9.460;2023-05-10T05:32:43;98023.75;;;16.37;76.24
48622;BME280;34421;48.944;9.460;2023-05-10T05:35:09;98022.44;;;16.39;75.74
48622;BME280;34421;48.944;9.460;2023-05-10T05:37:34;98030.31;;;16.51;75.57
48622;BME280;34421;48.944;9.460;2023-05-10T05:40:00;98030.13;;;16.68;74.83
48622;BME280;34421;48.944;9.460;2023-05-10T05:42:27;98029.97;;;16.85;74.11
48622;BME280;34421;48.944;9.460;2023-05-10T05:44:52;98033.81;;;16.99;73.87
48622;BME280;34421;48.944;9.460;2023-05-10T05:47:17;98039.78;;;17.12;73.41
48622;BME280;34421;48.944;9.460;2023-05-10T05:49:43;98037.69;;;17.24;72.73
48622;BME280;34421;48.944;9.460;2023-05-10T05:52:11;98045.50;;;17.36;71.90
48622;BME280;34421;48.944;9.460;2023-05-10T05:54:36;98037.47;;;17.46;71.90
48622;BME280;34421;48.944;9.460;2023-05-10T05:57:01;98034.53;;;17.52;71.15
48622;BME280;34421;48.944;9.460;2023-05-10T05:59:27;98028.59;;;17.61;70.94
48622;BME280;34421;48.944;9.460;2023-05-10T06:01:52;98036.41;;;17.57;71.47
48622;BME280;34421;48.944;9.460;2023-05-10T06:04:18;98040.22;;;17.61;71.47
48622;BME280;34421;48.944;9.460;2023-05-10T06:06:43;98040.47;;;17.75;71.06
48622;BME280;34421;48.944;9.460;2023-05-10T06:09:09;98041.63;;;17.79;70.44
48622;BME280;34421;48.944;9.460;2023-05-10T06:11:35;98043.78;;;17.82;70.32
48622;BME280;34421;48.944;9.460;2023-05-10T06:14:01;98041.63;;;17.79;70.69
48622;BME280;34421;48.944;9.460;2023-05-10T06:16:27;98049.66;;;17.74;70.47
48622;BME280;34421;48.944;9.460;2023-05-10T06:18:52;98052.88;;;17.76;69.76
48622;BME280;34421;48.944;9.460;2023-05-10T06:21:17;98055.34;;;17.83;69.95
48622;BME280;34421;48.944;9.460;2023-05-10T06:23:42;98056.13;;;17.73;70.02
48622;BME280;34421;48.944;9.460;2023-05-10T06:26:09;98056.34;;;17.61;70.57
48622;BME280;34421;48.944;9.460;2023-05-10T06:28:34;98065.50;;;17.65;69.61
48622;BME280;34421;48.944;9.460;2023-05-10T06:31:00;98063.09;;;17.69;69.68
48622;BME280;34421;48.944;9.460;2023-05-10T06:33:25;98066.34;;;17.76;69.34
48622;BME280;34421;48.944;9.460;2023-05-10T06:35:51;98069.84;;;17.76;69.37
48622;BME280;34421;48.944;9.460;2023-05-10T06:38:16;98055.06;;;17.84;68.90
48622;BME280;34421;48.944;9.460;2023-05-10T06:40:42;98054.03;;;18.01;69.12
48622;BME280;34421;48.944;9.460;2023-05-10T06:43:08;98064.78;;;18.11;68.32
48622;BME280;34421;48.944;9.460;2023-05-10T06:45:33;98057.78;;;18.05;68.62
48622;BME280;34421;48.944;9.460;2023-05-10T06:47:59;98063.16;;;17.89;68.69
48622;BME280;34421;48.944;9.460;2023-05-10T06:50:24;98067.41;;;17.75;68.85
48622;BME280;34421;48.944;9.460;2023-05-10T06:52:50;98063.91;;;17.64;69.27
48622;BME280;34421;48.944;9.460;2023-05-10T06:55:15;98071.09;;;17.48;69.44
48622;BME280;34421;48.944;9.460;2023-05-10T06:57:41;98073.28;;;17.51;70.03
48622;BME280;34421;48.944;9.460;2023-05-10T07:00:06;98071.16;;;17.59;70.03
48622;BME280;34421;48.944;9.460;2023-05-10T07:02:32;98073.03;;;17.58;69.69
48622;BME280;34421;48.944;9.460;2023-05-10T07:04:58;98080.56;;;17.56;69.34
48622;BME280;34421;48.944;9.460;2023-05-10T07:07:23;98081.09;;;17.63;69.46
48622;BME280;34421;48.944;9.460;2023-05-10T07:09:48;98080.38;;;17.78;69.48
48622;BME280;34421;48.944;9.460;2023-05-10T07:12:15;98075.03;;;18.09;68.33
48622;BME280;34421;48.944;9.460;2023-05-10T07:14:40;98075.56;;;18.36;66.98
48622;BME280;34421;48.944;9.460;2023-05-10T07:17:06;98071.22;;;18.71;66.59
48622;BME280;34421;48.944;9.460;2023-05-10T07:19:31;98074.97;;;18.90;65.40
48622;BME280;34421;48.944;9.460;2023-05-10T07:21:57;98075.47;;;19.03;64.68
48622;BME280;34421;48.944;9.460;2023-05-10T07:24:23;98078.16;;;19.08;64.02
48622;BME280;34421;48.944;9.460;2023-05-10T07:26:49;98081.41;;;19.10;63.84
48622;BME280;34421;48.944;9.460;2023-05-10T07:29:14;98076.25;;;19.13;63.48
48622;BME280;34421;48.944;9.460;2023-05-10T07:31:40;98080.22;;;19.37;63.04
48622;BME280;34421;48.944;9.460;2023-05-10T07:34:07;98080.09;;;19.57;61.52
48622;BME280;34421;48.944;9.460;2023-05-10T07:36:32;98085.69;;;19.81;61.88
48622;BME280;34421;48.944;9.460;2023-05-10T07:38:57;98081.41;;;20.14;60.41
48622;BME280;34421;48.944;9.460;2023-05-10T07:41:23;98089.06;;;20.36;59.17
48622;BME280;34421;48.944;9.460;2023-05-10T07:43:48;98088.94;;;20.52;59.15
48622;BME280;34421;48.944;9.460;2023-05-10T07:46:14;98086.03;;;20.43;59.97
48622;BME280;34421;48.944;9.460;2023-05-10T07:48:39;98082.84;;;20.36;59.91
48622;BME280;34421;48.944;9.460;2023-05-10T07:51:04;98087.84;;;20.18;59.36
48622;BME280;34421;48.944;9.460;2023-05-10T07:53:31;98084.91;;;20.15;60.12
48622;BME280;34421;48.944;9.460;2023-05-10T07:55:57;98082.41;;;20.23;59.92
48622;BME280;34421;48.944;9.460;2023-05-10T07:58:24;98091.31;;;20.24;59.78
48622;BME280;34421;48.944;9.460;2023-05-10T08:00:49;98084.69;;;20.11;59.40
48622;BME280;34421;48.944;9.460;2023-05-10T08:03:15;98086.06;;;20.03;59.56
48622;BME280;34421;48.944;9.460;2023-05-10T08:05:41;98093.75;;;19.86;59.77
48622;BME280;34421;48.944;9.460;2023-05-10T08:08:06;98083.44;;;19.93;59.33
48622;BME280;34421;48.944;9.460;2023-05-10T08:10:32;98084.69;;;20.06;59.36
48622;BME280;34421;48.944;9.460;2023-05-10T08:12:57;98087.41;;;20.06;59.39
48622;BME280;34421;48.944;9.460;2023-05-10T08:15:24;98095.47;;;20.11;59.04
48622;BME280;34421;48.944;9.460;2023-05-10T08:17:51;98092.28;;;20.04;58.77
48622;BME280;34421;48.944;9.460;2023-05-10T08:20:17;98094.41;;;20.07;57.82
48622;BME280;34421;48.944;9.460;2023-05-10T08:22:44;98093.06;;;20.04;57.85
48622;BME280;34421;48.944;9.460;2023-05-10T08:25:10;98098.28;;;19.96;58.08
48622;BME280;34421;48.944;9.460;2023-05-10T08:27:35;98103.47;;;19.87;58.81
48622;BME280;34421;48.944;9.460;2023-05-10T08:30:00;98109.13;;;19.91;58.23
48622;BME280;34421;48.944;9.460;2023-05-10T08:32:26;98105.88;;;19.94;58.37
48622;BME280;34421;48.944;9.460;2023-05-10T08:34:51;98106.44;;;19.91;58.59
48622;BME280;34421;48.944;9.460;2023-05-10T08:37:16;98107.59;;;19.74;58.67
48622;BME280;34421;48.944;9.460;2023-05-10T08:39:42;98102.78;;;19.61;58.26
48622;BME280;34421;48.944;9.460;2023-05-10T08:42:07;98105.47;;;19.61;58.61
48622;BME280;34421;48.944;9.460;2023-05-10T08:44:35;98109.25;;;19.65;58.05
48622;BME280;34421;48.944;9.460;2023-05-10T08:47:05;98103.50;;;19.82;57.71
48622;BME280;34421;48.944;9.460;2023-05-10T08:49:32;98108.38;;;20.19;57.67
48622;BME280;34421;48.944;9.460;2023-05-10T08:52:02;98106.31;;;20.75;55.85
48622;BME280;34421;48.944;9.460;2023-05-10T08:54:29;98114.31;;;21.38;53.89
48622;BME280;34421;48.944;9.460;2023-05-10T08:56:55;98112.84;;;21.70;52.70
48622;BME280;34421;48.944;9.460;2023-05-10T08:59:21;98109.34;;;21.69;52.24
48622;BME280;34421;48.944;9.460;2023-05-10T09:01:48;98123.38;;;21.71;51.22
48622;BME280;34421;48.944;9.460;2023-05-10T09:04:14;98118.59;;;21.87;49.76
48622;BME280;34421;48.944;9.460;2023-05-10T09:06:40;98123.78;;;22.02;48.99
48622;BME280;34421;48.944;9.460;2023-05-10T09:09:06;98131.09;;;22.02;48.52
48622;BME280;34421;48.944;9.460;2023-05-10T09:11:31;98130.06;;;21.98;48.91
48622;BME280;34421;48.944;9.460;2023-05-10T09:13:57;98127.22;;;22.27;48.24
48622;BME280;34421;48.944;9.460;2023-05-10T09:16:23;98132.41;;;22.42;48.03
48622;BME280;34421;48.944;9.460;2023-05-10T09:18:48;98128.63;;;22.76;48.02
48622;BME280;34421;48.944;9.460;2023-05-10T09:21:14;98129.09;;;22.97;47.23
48622;BME280;34421;48.944;9.460;2023-05-10T09:23:43;98124.25;;;23.08;46.91
48622;BME280;34421;48.944;9.460;2023-05-10T09:26:08;98119.13;;;23.06;46.35
48622;BME280;34421;48.944;9.460;2023-05-10T09:28:34;98131.81;;;23.25;46.48
48622;BME280;34421;48.944;9.460;2023-05-10T09:31:14;98128.91;;;23.21;45.97
48622;BME280;34421;48.944;9.460;2023-05-10T09:33:44;98131.56;;;22.93;46.14
48622;BME280;34421;48.944;9.460;2023-05-10T09:36:10;98139.72;;;22.93;46.88
48622;BME280;34421;48.944;9.460;2023-05-10T09:38:49;98140.28;;;23.23;46.79
48622;BME280;34421;48.944;9.460;2023-05-10T09:41:19;98138.06;;;23.39;45.47
48622;BME280;34421;48.944;9.460;2023-05-10T09:43:45;98141.16;;;23.46;44.78
48622;BME280;34421;48.944;9.460;2023-05-10T09:46:11;98136.84;;;23.31;44.73
48622;BME280;34421;48.944;9.460;2023-05-10T09:48:46;98145.75;;;22.90;46.25
48622;BME280;34421;48.944;9.460;2023-05-10T09:51:23;98150.09;;;22.21;46.85
48622;BME280;34421;48.944;9.460;2023-05-10T09:53:48;98159.13;;;21.25;47.88
48622;BME280;34421;48.944;9.460;2023-05-10T09:56:35;98163.38;;;20.44;49.74
48622;BME280;34421;48.944;9.460;2023-05-10T09:59:02;98168.78;;;19.99;51.51
48622;BME280;34421;48.944;9.460;2023-05-10T10:01:29;98159.50;;;19.66;53.17
48622;BME280;34421;48.944;9.460;2023-05-10T10:03:54;98165.22;;;19.39;53.49
48622;BME280;34421;48.944;9.460;2023-05-10T10:06:20;98172.06;;;19.11;53.95
48622;BME280;34421;48.944;9.460;2023-05-10T10:08:46;98163.97;;;19.11;54.50
48622;BME280;34421;48.944;9.460;2023-05-10T10:11:11;98164.22;;;19.25;54.27
48622;BME280;34421;48.944;9.460;2023-05-10T10:13:36;98161.66;;;19.69;54.60
48622;BME280;34421;48.944;9.460;2023-05-10T10:16:02;98151.53;;;20.35;53.54
48622;BME280;34421;48.944;9.460;2023-05-10T10:18:28;98156.88;;;21.32;51.85
48622;BME280;34421;48.944;9.460;2023-05-10T10:20:55;98154.28;;;22.13;50.97
48622;BME280;34421;48.944;9.460;2023-05-10T10:23:21;98149.03;;;22.87;49.61
48622;BME280;34421;48.944;9.460;2023-05-10T10:25:47;98148.19;;;23.61;48.85
48622;BME280;34421;48.944;9.460;2023-05-10T10:28:26;98139.88;;;24.44;47.20
48622;BME280;34421;48.944;9.460;2023-05-10T10:31:01;98145.09;;;24.54;46.02
48622;BME280;34421;48.944;9.460;2023-05-10T10:36:29;98133.59;;;24.88;45.01
48622;BME280;34421;48.944;9.460;2023-05-10T10:38:59;98135.25;;;24.98;44.64
48622;BME280;34421;48.944;9.460;2023-05-10T10:41:51;98128.59;;;25.44;43.95
48622;BME280;34421;48.944;9.460;2023-05-10T10:52:24;98129.97;;;27.33;38.40
48622;BME280;34421;48.944;9.460;2023-05-10T10:57:22;98131.47;;;26.31;39.23
48622;BME280;34421;48.944;9.460;2023-05-10T10:59:47;98134.72;;;25.67;39.15
48622;BME280;34421;48.944;9.460;2023-05-10T11:08:00;98146.66;;;23.96;41.08
48622;BME280;34421;48.944;9.460;2023-05-10T11:10:26;98146.88;;;22.70;43.44
48622;BME280;34421;48.944;9.460;2023-05-10T11:12:58;98144.72;;;21.97;44.29
48622;BME280;34421;48.944;9.460;2023-05-10T11:15:32;98148.09;;;21.46;45.92
48622;BME280;34421;48.944;9.460;2023-05-10T11:17:58;98150.88;;;21.35;46.07
48622;BME280;34421;48.944;9.460;2023-05-10T11:20:27;98141.34;;;21.43;46.29
48622;BME280;34421;48.944;9.460;2023-05-10T11:23:00;98145.22;;;21.37;46.84
48622;BME280;34421;48.944;9.460;2023-05-10T11:25:41;98155.56;;;21.30;46.42
48622;BME280;34421;48.944;9.460;2023-05-10T11:28:06;98150.00;;;21.45;46.78
48622;BME280;34421;48.944;9.460;2023-05-10T11:30:31;98159.72;;;21.46;47.30
48622;BME280;34421;48.944;9.460;2023-05-10T11:32:57;98158.94;;;21.16;48.07
48622;BME280;34421;48.944;9.460;2023-05-10T11:35:22;98154.19;;;20.79;49.17
48622;BME280;34421;48.944;9.460;2023-05-10T11:37:48;98164.00;;;20.25;50.32
48622;BME280;34421;48.944;9.460;2023-05-10T11:40:13;98165.66;;;19.72;51.27
48622;BME280;34421;48.944;9.460;2023-05-10T11:42:39;98172.56;;;19.28;51.25
48622;BME280;34421;48.944;9.460;2023-05-10T11:45:05;98171.53;;;18.88;51.70
48622;BME280;34421;48.944;9.460;2023-05-10T11:47:31;98180.44;;;18.74;52.16
48622;BME280;34421;48.944;9.460;2023-05-10T11:49:57;98183.13;;;18.58;52.22
48622;BME280;34421;48.944;9.460;2023-05-10T11:52:23;98180.16;;;18.55;51.95
48622;BME280;34421;48.944;9.460;2023-05-10T11:54:52;98182.31;;;18.53;52.45
48622;BME280;34421;48.944;9.460;2023-05-10T11:57:19;98183.94;;;18.49;52.53
48622;BME280;34421;48.944;9.460;2023-05-10T11:59:46;98192.31;;;18.62;52.31
48622;BME280;34421;48.944;9.460;2023-05-10T12:02:13;98186.13;;;18.93;51.97
48622;BME280;34421;48.944;9.460;2023-05-10T12:04:38;98180.66;;;19.33;52.02
48622;BME280;34421;48.944;9.460;2023-05-10T12:07:04;98182.16;;;19.75;51.12
48622;BME280;34421;48.944;9.460;2023-05-10T12:09:30;98182.44;;;20.18;50.04
48622;BME280;34421;48.944;9.460;2023-05-10T12:11:55;98174.66;;;20.51;49.25
48622;BME280;34421;48.944;9.460;2023-05-10T12:14:22;98185.38;;;20.66;48.47
48622;BME280;34421;48.944;9.460;2023-05-10T12:16:47;98189.63;;;21.07;48.26
48622;BME280;34421;48.944;9.460;2023-05-10T12:19:18;98177.84;;;21.51;47.36
48622;BME280;34421;48.944;9.460;2023-05-10T12:21:44;98180.28;;;21.95;46.10
48622;BME280;34421;48.944;9.460;2023-05-10T12:24:09;98179.56;;;22.46;45.68
48622;BME280;34421;48.944;9.460;2023-05-10T12:26:35;98178.06;;;22.73;45.82
48622;BME280;34421;48.944;9.460;2023-05-10T12:29:19;98183.75;;;22.90;45.42
48622;BME280;34421;48.944;9.460;2023-05-10T12:31:58;98184.91;;;22.84;45.64
48622;BME280;34421;48.944;9.460;2023-05-10T12:36:56;98190.84;;;22.53;45.28
48622;BME280;34421;48.944;9.460;2023-05-10T12:39:21;98199.25;;;22.71;45.24
48622;BME280;34421;48.944;9.460;2023-05-10T12:41:47;98188.44;;;22.85;44.33
48622;BME280;34421;48.944;9.460;2023-05-10T12:44:12;98193.31;;;22.69;44.08
48622;BME280;34421;48.944;9.460;2023-05-10T12:46:37;98191.25;;;22.80;43.97
48622;BME280;34421;48.944;9.460;2023-05-10T12:49:03;98200.63;;;22.68;44.00
48622;BME280;34421;48.944;9.460;2023-05-10T12:51:28;98199.16;;;22.76;43.77
48622;BME280;34421;48.944;9.460;2023-05-10T12:53:53;98194.00;;;22.93;43.56
48622;BME280;34421;48.944;9.460;2023-05-10T12:56:19;98193.56;;;22.86;42.82
48622;BME280;34421;48.944;9.460;2023-05-10T12:58:45;98198.38;;;22.75;42.45
48622;BME280;34421;48.944;9.460;2023-05-10T13:01:13;98194.28;;;22.92;42.31
48622;BME280;34421;48.944;9.460;2023-05-10T13:03:39;98197.88;;;23.06;41.72
48622;BME280;34421;48.944;9.460;2023-05-10T13:06:04;98197.81;;;22.92;41.23
48622;BME280;34421;48.944;9.460;2023-05-10T13:08:30;98190.31;;;22.70;42.13
48622;BME280;34421;48.944;9.460;2023-05-10T13:10:59;98200.69;;;22.49;42.37
48622;BME280;34421;48.944;9.460;2023-05-10T13:13:24;98203.97;;;22.27;43.05
48622;BME280;34421;48.944;9.460;2023-05-10T13:15:50;98203.00;;;22.18;42.44
48622;BME280;34421;48.944;9.460;2023-05-10T13:18:15;98201.75;;;22.11;42.14
48622;BME280;34421;48.944;9.460;2023-05-10T13:20:40;98206.91;;;22.07;43.04
48622;BME280;34421;48.944;9.460;2023-05-10T13:23:06;98207.66;;;22.13;41.90
48622;BME280;34421;48.944;9.460;2023-05-10T13:25:31;98196.78;;;22.18;41.93
48622;BME280;34421;48.944;9.460;2023-05-10T13:27:56;98204.56;;;22.24;41.49
48622;BME280;34421;48.944;9.460;2023-05-10T13:30:22;98198.13;;;22.20;41.36
48622;BME280;34421;48.944;9.460;2023-05-10T13:32:48;98198.78;;;22.07;41.80
48622;BME280;34421;48.944;9.460;2023-05-10T13:35:14;98207.50;;;21.85;42.41
48622;BME280;34421;48.944;9.460;2023-05-10T13:37:39;98195.47;;;21.72;42.35